createdAt,value
2018-06-02T00:01:23.522Z,26.03
2018-06-02T00:04:06.346Z,36.57
2018-06-02T00:06:38.432Z,29.90
2018-06-02T00:09:06.680Z,27.13
2018-06-02T00:11:34.862Z,28.50
2018-06-02T00:14:03.047Z,25.37
2018-06-02T00:16:31.368Z,25.73
2018-06-02T00:18:59.606Z,21.30
2018-06-02T00:21:27.757Z,21.27
2018-06-02T00:23:55.911Z,25.87
2018-06-02T00:26:24.856Z,23.60
2018-06-02T00:28:53.820Z,29.80
2018-06-02T00:31:21.995Z,18.07
2018-06-02T00:33:50.189Z,20.67
2018-06-02T00:36:18.484Z,21.57
2018-06-02T00:38:46.845Z,27.60
2018-06-02T00:41:15.199Z,19.63
2018-06-02T00:43:43.383Z,22.47
2018-06-02T00:46:11.591Z,34.47
2018-06-02T00:48:39.802Z,27.23
2018-06-02T00:51:08.736Z,31.27
2018-06-02T00:53:36.885Z,33.70
2018-06-02T00:56:05.089Z,35.07
2018-06-02T00:58:33.475Z,34.20
2018-06-02T01:01:01.738Z,39.30
2018-06-02T01:03:29.905Z,41.87
2018-06-02T01:05:58.082Z,40.13
2018-06-02T01:08:26.249Z,36.57
2018-06-02T01:10:54.661Z,42.30
2018-06-02T01:13:22.826Z,38.37
2018-06-02T01:15:51.002Z,40.20
2018-06-02T01:18:19.251Z,41.60
2018-06-02T01:20:48.769Z,42.23
2018-06-02T01:23:16.889Z,39.90
2018-06-02T01:31:44.883Z,32.33
2018-06-02T01:34:13.137Z,30.40
2018-06-02T01:36:41.387Z,24.50
2018-06-02T01:39:15.127Z,22.90
2018-06-02T01:44:34.621Z,26.07
2018-06-02T01:47:04.761Z,26.63
2018-06-02T01:52:33.467Z,28.00
2018-06-02T01:55:14.136Z,29.47
2018-06-02T01:57:42.345Z,36.60
2018-06-02T02:00:10.500Z,31.67
2018-06-02T02:02:38.681Z,29.00
2018-06-02T02:05:33.737Z,30.63
2018-06-02T02:11:39.114Z,28.30
2018-06-02T02:14:16.456Z,29.47
2018-06-02T02:16:51.123Z,28.87
2018-06-02T02:22:34.733Z,28.50
2018-06-02T02:25:04.021Z,36.53
2018-06-02T02:27:33.633Z,32.63
2018-06-02T02:37:16.340Z,41.53
2018-06-02T02:39:45.991Z,43.83
2018-06-02T02:42:19.592Z,43.87
2018-06-02T02:59:38.795Z,48.30
2018-06-02T03:05:18.691Z,55.40
2018-06-02T03:07:48.640Z,55.90
2018-06-02T03:10:41.568Z,58.10
2018-06-02T03:19:10.118Z,61.67
2018-06-02T03:21:39.702Z,62.30
2018-06-02T03:24:09.107Z,62.13
2018-06-02T03:26:37.288Z,62.47
2018-06-02T03:29:05.497Z,65.80
2018-06-02T03:31:45.994Z,63.77
2018-06-02T03:34:14.269Z,64.67
2018-06-02T03:36:44.619Z,69.67
2018-06-02T03:39:14.487Z,66.20
2018-06-02T03:42:02.636Z,70.33
2018-06-02T03:45:00.531Z,75.20
2018-06-02T03:47:52.727Z,75.60
2018-06-02T03:50:20.903Z,76.03
2018-06-02T03:52:50.661Z,83.20
2018-06-02T03:55:18.826Z,82.73
2018-06-02T03:57:47.073Z,86.07
2018-06-02T04:00:15.235Z,91.60
2018-06-02T04:02:44.271Z,90.43
2018-06-02T04:05:12.480Z,101.37
2018-06-02T04:07:40.727Z,102.60
2018-06-02T04:10:08.948Z,102.20
2018-06-02T04:12:37.916Z,110.77
2018-06-02T04:15:06.113Z,114.13
2018-06-02T04:17:35.048Z,115.30
2018-06-02T04:20:03.216Z,114.90
2018-06-02T04:22:31.382Z,118.13
2018-06-02T04:24:59.609Z,120.60
2018-06-02T04:27:27.799Z,116.13
2018-06-02T04:29:56.737Z,117.83
2018-06-02T04:32:24.895Z,120.90
2018-06-02T04:34:53.112Z,106.57
2018-06-02T04:37:21.309Z,110.67
2018-06-02T04:39:50.259Z,108.57
2018-06-02T04:42:18.467Z,100.93
2018-06-02T04:44:47.413Z,104.03
2018-06-02T04:47:15.582Z,102.20
2018-06-02T04:49:43.793Z,102.73
2018-06-02T04:52:11.948Z,107.10
2018-06-02T04:54:40.113Z,113.57
2018-06-02T04:57:08.274Z,113.60
2018-06-02T04:59:36.463Z,108.57
2018-06-02T05:02:04.631Z,132.57
2018-06-02T05:04:32.811Z,140.90
2018-06-02T05:07:00.968Z,143.40
2018-06-02T05:09:29.161Z,145.43
2018-06-02T05:11:57.324Z,158.00
2018-06-02T05:14:25.512Z,157.03
2018-06-02T05:16:53.693Z,166.10
2018-06-02T05:19:21.864Z,162.07
2018-06-02T05:21:50.050Z,156.17
2018-06-02T05:24:18.218Z,157.03
2018-06-02T05:26:47.191Z,162.27
2018-06-02T05:29:15.437Z,158.10
2018-06-02T05:31:43.561Z,164.10
2018-06-02T05:34:12.500Z,161.83
2018-06-02T05:36:40.691Z,164.80
2018-06-02T05:39:08.858Z,156.30
2018-06-02T05:41:37.074Z,161.63
2018-06-02T05:44:06.014Z,156.20
2018-06-02T05:46:34.212Z,148.30
2018-06-02T05:49:02.368Z,153.30
2018-06-02T05:51:30.578Z,145.03
2018-06-02T05:53:58.744Z,143.67
2018-06-02T05:56:26.925Z,133.00
2018-06-02T05:58:55.081Z,114.53
2018-06-02T06:01:23.273Z,93.00
2018-06-02T06:03:51.472Z,89.83
2018-06-02T06:06:19.634Z,87.37
2018-06-02T06:08:47.785Z,80.50
2018-06-02T06:11:15.956Z,80.57
2018-06-02T06:13:44.114Z,80.80
2018-06-02T06:16:12.273Z,77.37
2018-06-02T06:18:40.441Z,85.13
2018-06-02T06:21:08.615Z,89.53
2018-06-02T06:23:36.776Z,85.77
2018-06-02T06:26:04.955Z,90.63
2018-06-02T06:28:33.144Z,95.43
2018-06-02T06:31:01.319Z,83.00
2018-06-02T06:33:29.489Z,77.60
2018-06-02T06:35:57.657Z,76.17
2018-06-02T06:38:25.871Z,71.93
2018-06-02T06:40:54.860Z,66.97
2018-06-02T06:43:23.021Z,68.87
2018-06-02T06:45:52.961Z,62.30
2018-06-02T06:48:21.899Z,59.50
2018-06-02T06:50:50.089Z,59.70
2018-06-02T06:53:18.250Z,57.00
2018-06-02T06:55:46.441Z,57.63
2018-06-02T06:58:14.683Z,53.70
2018-06-02T07:00:42.847Z,53.57
2018-06-02T07:03:11.031Z,51.97
2018-06-02T07:05:39.260Z,54.50
2018-06-02T07:08:08.203Z,54.87
2018-06-02T07:10:36.382Z,51.57
2018-06-02T07:13:04.589Z,54.60
2018-06-02T07:15:33.295Z,57.20
2018-06-02T07:18:01.492Z,60.27
2018-06-02T07:20:29.650Z,60.60
2018-06-02T07:22:57.838Z,63.77
2018-06-02T07:25:26.018Z,62.60
2018-06-02T07:27:54.180Z,64.43
2018-06-02T07:30:22.349Z,63.37
2018-06-02T07:32:50.537Z,63.03
2018-06-02T07:35:18.687Z,63.20
2018-06-02T07:37:46.882Z,61.63
2018-06-02T07:40:15.933Z,61.27
2018-06-02T07:42:44.867Z,58.03
2018-06-02T07:45:13.057Z,60.80
2018-06-02T07:47:41.221Z,59.73
2018-06-02T07:50:09.441Z,65.67
2018-06-02T07:52:37.774Z,62.37
2018-06-02T07:55:05.949Z,65.80
2018-06-02T07:57:34.239Z,64.00
2018-06-02T08:00:02.446Z,56.50
2018-06-02T08:02:31.386Z,54.63
2018-06-02T08:04:59.542Z,55.33
2018-06-02T08:07:28.514Z,51.30
2018-06-02T08:09:56.813Z,56.50
2018-06-02T08:12:24.993Z,46.90
2018-06-02T08:14:53.184Z,50.80
2018-06-02T08:17:21.346Z,48.50
2018-06-02T08:19:50.294Z,49.03
2018-06-02T08:22:19.255Z,50.60
2018-06-02T08:24:47.514Z,48.90
2018-06-02T08:27:19.870Z,50.77
2018-06-02T08:29:48.391Z,47.30
2018-06-02T08:32:16.623Z,44.13
2018-06-02T08:34:44.992Z,41.47
2018-06-02T08:37:13.254Z,44.70
2018-06-02T08:39:41.566Z,41.60
2018-06-02T08:42:09.728Z,42.20
2018-06-02T08:44:39.088Z,41.03
2018-06-02T08:47:08.011Z,41.97
2018-06-02T08:49:36.237Z,42.33
2018-06-02T08:52:04.475Z,44.37
2018-06-02T08:54:32.633Z,45.87
2018-06-02T08:57:00.792Z,45.27
2018-06-02T08:59:28.953Z,45.30
2018-06-02T09:01:57.859Z,42.63
2018-06-02T09:04:26.084Z,43.93
2018-06-02T09:06:54.284Z,45.13
2018-06-02T09:09:23.233Z,45.27
2018-06-02T09:11:52.121Z,48.03
2018-06-02T09:14:20.272Z,48.33
2018-06-02T09:16:48.451Z,48.60
2018-06-02T09:19:16.673Z,49.37
2018-06-02T09:21:44.884Z,45.13
2018-06-02T09:24:13.143Z,47.93
2018-06-02T09:26:41.300Z,51.47
2018-06-02T09:29:10.249Z,45.27
2018-06-02T09:31:38.402Z,44.70
2018-06-02T09:34:06.579Z,45.50
2018-06-02T09:36:34.767Z,44.13
2018-06-02T09:39:03.033Z,40.27
2018-06-02T09:41:31.456Z,39.40
2018-06-02T09:44:00.479Z,36.77
2018-06-02T09:46:28.814Z,36.47
2018-06-02T09:48:56.979Z,37.37
2018-06-02T09:51:25.157Z,37.23
2018-06-02T09:53:53.322Z,39.77
2018-06-02T09:56:21.503Z,39.33
2018-06-02T09:58:49.723Z,40.73
2018-06-02T10:01:17.884Z,39.23
2018-06-02T10:03:46.812Z,40.47
2018-06-02T10:06:14.991Z,45.30
2018-06-02T10:08:43.173Z,46.53
2018-06-02T10:11:11.456Z,46.53
2018-06-02T10:13:39.648Z,46.40
2018-06-02T10:16:07.948Z,47.00
2018-06-02T10:18:36.912Z,46.50
2018-06-02T10:21:05.328Z,45.57
2018-06-02T10:23:38.350Z,51.30
2018-06-02T10:26:08.847Z,48.77
2018-06-02T10:28:37.397Z,50.10
2018-06-02T10:31:07.272Z,51.33
2018-06-02T10:33:35.504Z,48.80
2018-06-02T10:36:03.675Z,50.07
2018-06-02T10:38:31.829Z,47.03
2018-06-02T10:41:00.966Z,38.80
2018-06-02T10:43:29.210Z,37.17
2018-06-02T10:45:58.713Z,28.50
2018-06-02T10:48:26.981Z,27.40
2018-06-02T10:50:55.259Z,25.90
2018-06-02T10:53:25.939Z,25.30
2018-06-02T10:55:54.299Z,28.80
2018-06-02T10:58:22.509Z,28.43
2018-06-02T11:00:50.798Z,25.30
2018-06-02T11:03:18.951Z,24.50
2018-06-02T11:05:47.163Z,22.93
2018-06-02T11:08:16.091Z,25.70
2018-06-02T11:10:44.250Z,26.17
2018-06-02T11:13:13.160Z,27.17
2018-06-02T11:15:41.452Z,26.63
2018-06-02T11:18:09.671Z,25.23
2018-06-02T11:20:38.591Z,24.80
2018-06-02T11:23:06.779Z,23.40
2018-06-02T11:25:34.939Z,26.80
2018-06-02T11:28:03.100Z,23.40
2018-06-02T11:30:31.375Z,25.27
2018-06-02T11:32:59.533Z,23.03
2018-06-02T11:35:28.142Z,23.70
2018-06-02T11:37:56.313Z,20.80
2018-06-02T11:40:24.556Z,20.73
2018-06-02T11:42:53.541Z,21.10
2018-06-02T11:45:23.316Z,18.23
2018-06-02T11:47:52.103Z,17.33
2018-06-02T11:50:20.277Z,15.03
2018-06-02T11:55:52.859Z,21.07
2018-06-02T11:58:21.091Z,20.77
2018-06-02T12:01:06.680Z,22.13
2018-06-02T12:03:47.335Z,26.17
2018-06-02T12:06:31.968Z,23.97
2018-06-02T12:09:14.522Z,26.77
2018-06-02T12:15:07.820Z,25.13
2018-06-02T12:17:52.436Z,25.17
2018-06-02T12:20:46.274Z,23.57
2018-06-02T12:23:27.896Z,22.67
2018-06-02T12:26:22.516Z,24.73
2018-06-02T12:28:57.826Z,21.00
2018-06-02T12:41:15.439Z,19.80
2018-06-02T12:43:56.884Z,19.83
2018-06-02T12:49:27.003Z,16.87
2018-06-02T12:55:26.525Z,19.43
2018-06-02T12:57:57.948Z,19.53
2018-06-02T13:00:48.074Z,21.03
2018-06-02T13:03:27.042Z,23.00
2018-06-02T13:21:31.649Z,27.97
2018-06-02T13:27:20.679Z,26.53
2018-06-02T13:40:22.305Z,33.13
2018-06-02T13:49:00.128Z,25.33
2018-06-02T13:51:49.191Z,26.20
2018-06-02T13:54:23.853Z,28.47
2018-06-02T13:57:01.378Z,24.80
2018-06-02T13:59:47.435Z,27.27
2018-06-02T14:02:18.687Z,29.53
2018-06-02T14:04:50.480Z,27.97
2018-06-02T14:07:24.580Z,29.83
2018-06-02T14:09:53.511Z,28.30
2018-06-02T14:12:22.616Z,28.77
2018-06-02T14:14:54.755Z,25.93
2018-06-02T14:17:26.326Z,27.23
2018-06-02T14:19:58.974Z,27.30
2018-06-02T14:22:34.393Z,27.70
2018-06-02T14:25:02.564Z,27.50
2018-06-02T14:27:30.748Z,26.50
2018-06-02T14:29:59.679Z,27.17
2018-06-02T14:32:27.840Z,28.83
2018-06-02T14:34:56.141Z,26.33
2018-06-02T14:37:24.401Z,27.57
2018-06-02T14:39:52.606Z,28.43
2018-06-02T14:42:20.793Z,27.43
2018-06-02T14:44:49.842Z,27.33
2018-06-02T14:47:18.022Z,30.10
2018-06-02T14:49:47.254Z,29.60
2018-06-02T14:52:16.138Z,36.57
2018-06-02T14:54:44.315Z,38.77
2018-06-02T14:57:12.501Z,40.37
2018-06-02T14:59:40.684Z,40.60
2018-06-02T15:02:09.638Z,44.47
2018-06-02T15:04:37.803Z,47.23
2018-06-02T15:07:05.972Z,45.40
2018-06-02T15:09:34.161Z,43.50
2018-06-02T15:12:02.348Z,44.13
2018-06-02T15:14:30.525Z,43.53
2018-06-02T15:16:58.733Z,42.60
2018-06-02T15:19:27.722Z,40.40
2018-06-02T15:21:56.672Z,40.83
2018-06-02T15:24:24.856Z,40.40
2018-06-02T15:26:53.275Z,37.93
2018-06-02T15:41:21.065Z,39.23
2018-06-02T15:43:49.248Z,40.37
2018-06-02T15:46:39.243Z,38.97
2018-06-02T15:49:25.353Z,40.50
2018-06-02T15:55:07.437Z,41.53
2018-06-02T16:00:38.884Z,37.67
2018-06-02T16:03:20.390Z,35.90
2018-06-02T16:06:01.944Z,37.37
2018-06-02T16:11:42.451Z,36.80
2018-06-02T16:14:15.031Z,38.77
2018-06-02T16:16:44.069Z,42.60
2018-06-02T16:19:12.249Z,42.37
2018-06-02T16:21:40.783Z,41.07
2018-06-02T16:32:47.999Z,41.00
2018-06-02T16:35:16.141Z,40.07
2018-06-02T16:37:57.069Z,43.17
2018-06-02T16:40:25.327Z,40.93
2018-06-02T16:42:53.561Z,45.47
2018-06-02T16:45:21.763Z,41.77
2018-06-02T16:47:50.050Z,42.73
2018-06-02T16:50:18.239Z,42.50
2018-06-02T16:52:46.468Z,42.07
2018-06-02T16:55:14.639Z,47.00
2018-06-02T16:57:42.807Z,44.57
2018-06-02T17:00:12.817Z,46.67
2018-06-02T17:02:43.785Z,46.93
2018-06-02T17:05:11.957Z,42.63
2018-06-02T17:07:40.285Z,46.07
2018-06-02T17:10:09.249Z,47.87
2018-06-02T17:12:37.566Z,51.27
2018-06-02T17:15:06.489Z,50.80
2018-06-02T17:17:35.746Z,56.77
2018-06-02T17:20:04.139Z,50.90
2018-06-02T17:22:33.047Z,52.70
2018-06-02T17:25:01.251Z,49.07
2018-06-02T17:27:29.424Z,53.23
2018-06-02T17:29:57.640Z,51.53
2018-06-02T17:32:26.563Z,52.07
2018-06-02T17:34:54.736Z,52.10
2018-06-02T17:37:22.889Z,49.87
2018-06-02T17:39:51.196Z,56.93
2018-06-02T17:42:20.518Z,62.33
2018-06-02T17:44:48.800Z,64.27
2018-06-02T17:47:17.791Z,62.33
2018-06-02T17:49:46.150Z,58.67
2018-06-02T17:52:14.458Z,59.50
2018-06-02T17:54:42.617Z,69.63
2018-06-02T17:57:10.789Z,59.77
2018-06-02T17:59:38.964Z,61.73
2018-06-02T18:02:07.172Z,63.97
2018-06-02T18:04:36.182Z,59.00
2018-06-02T18:07:04.394Z,60.87
2018-06-02T18:09:33.213Z,62.30
2018-06-02T18:12:02.160Z,60.07
2018-06-02T18:14:30.331Z,53.37
2018-06-02T18:16:58.525Z,56.50
2018-06-02T18:19:26.746Z,59.10
2018-06-02T18:21:55.079Z,56.33
2018-06-02T18:24:23.538Z,57.10
2018-06-02T18:26:54.339Z,53.70
2018-06-02T18:29:23.846Z,56.87
2018-06-02T18:31:52.167Z,50.50
2018-06-02T18:34:21.298Z,51.33
2018-06-02T18:36:49.610Z,49.13
2018-06-02T18:39:17.816Z,50.40
2018-06-02T18:41:45.973Z,54.97
2018-06-02T18:44:14.168Z,54.83
2018-06-02T18:46:42.503Z,51.87
2018-06-02T18:49:10.665Z,51.77
2018-06-02T18:51:38.873Z,58.53
2018-06-02T18:54:10.115Z,46.67
2018-06-02T18:56:38.542Z,48.37
2018-06-02T18:59:06.902Z,49.70
2018-06-02T19:01:35.096Z,47.50
2018-06-02T19:04:04.051Z,49.90
2018-06-02T19:06:33.305Z,47.50
2018-06-02T19:09:01.605Z,47.90
2018-06-02T19:11:29.812Z,48.27
2018-06-02T19:13:58.845Z,52.97
2018-06-02T19:16:27.045Z,50.20
2018-06-02T19:18:55.318Z,47.97
2018-06-02T19:21:23.480Z,51.50
2018-06-02T19:23:51.680Z,53.70
2018-06-02T19:26:20.048Z,52.47
2018-06-02T19:28:48.921Z,59.83
2018-06-02T19:31:17.137Z,53.00
2018-06-02T19:33:45.318Z,51.73
2018-06-02T19:36:13.476Z,51.10
2018-06-02T19:38:46.866Z,55.57
2018-06-02T19:41:15.061Z,53.00
2018-06-02T19:43:43.999Z,49.90
2018-06-02T19:46:12.149Z,52.20
2018-06-02T19:48:40.332Z,55.00
2018-06-02T19:51:08.530Z,57.53
2018-06-02T19:53:36.761Z,60.10
2018-06-02T19:56:04.961Z,55.47
2018-06-02T19:58:33.443Z,60.50
2018-06-02T20:01:01.620Z,57.17
2018-06-02T20:03:29.896Z,58.57
2018-06-02T20:05:58.061Z,68.37
2018-06-02T20:08:26.223Z,58.27
2018-06-02T20:10:54.417Z,55.03
2018-06-02T20:13:22.648Z,67.20
2018-06-02T20:15:51.581Z,53.60
2018-06-02T20:18:20.523Z,58.27
2018-06-02T20:20:48.679Z,61.47
2018-06-02T20:23:16.873Z,60.07
2018-06-02T20:25:45.910Z,62.77
2018-06-02T20:28:14.151Z,62.53
2018-06-02T20:30:43.084Z,64.93
2018-06-02T20:33:11.325Z,63.20
2018-06-02T20:35:40.281Z,64.57
2018-06-02T20:38:09.430Z,65.87
2018-06-02T20:41:00.825Z,68.63
2018-06-02T20:46:28.464Z,62.63
2018-06-02T20:52:03.652Z,67.10
2018-06-02T20:54:32.478Z,57.63
2018-06-02T20:57:01.524Z,67.57
2018-06-02T20:59:43.063Z,69.93
2018-06-02T21:02:14.605Z,66.57
2018-06-02T21:07:29.522Z,71.87
2018-06-02T21:09:58.921Z,75.87
2018-06-02T21:12:27.863Z,75.07
2018-06-02T21:14:56.037Z,66.17
2018-06-02T21:17:24.975Z,67.10
2018-06-02T21:19:53.790Z,74.43
2018-06-02T21:22:22.816Z,79.63
2018-06-02T21:24:52.341Z,91.20
2018-06-02T21:27:21.060Z,67.57
2018-06-02T21:29:49.352Z,70.47
2018-06-02T21:32:18.396Z,72.93
2018-06-02T21:34:46.900Z,71.03
2018-06-02T21:37:15.085Z,78.43
2018-06-02T21:39:50.986Z,79.23
2018-06-02T21:45:12.312Z,92.37
2018-06-02T21:47:53.080Z,81.47
2018-06-02T21:50:27.435Z,76.97
2018-06-02T21:52:57.086Z,93.97
2018-06-02T21:55:25.787Z,97.40
2018-06-02T21:57:55.579Z,74.97
2018-06-02T22:00:24.714Z,80.00
2018-06-02T22:02:53.425Z,87.60
2018-06-02T22:05:21.590Z,76.50
2018-06-02T22:07:49.823Z,77.17
2018-06-02T22:10:18.001Z,77.03
2018-06-02T22:12:47.152Z,76.37
2018-06-02T22:15:15.342Z,78.53
2018-06-02T22:17:43.495Z,67.00
2018-06-02T22:20:11.682Z,71.20
2018-06-02T22:22:44.187Z,70.13
2018-06-02T22:27:54.893Z,78.77
2018-06-02T22:30:23.203Z,75.83
2018-06-02T22:32:51.453Z,63.70
2018-06-02T22:35:20.697Z,59.73
2018-06-02T22:37:49.672Z,61.07
2018-06-02T22:40:17.872Z,60.10
2018-06-02T22:42:47.003Z,62.60
2018-06-02T22:45:15.285Z,56.30
2018-06-02T22:47:45.105Z,64.33
2018-06-02T22:50:14.175Z,61.63
2018-06-02T22:52:42.489Z,60.23
2018-06-02T22:55:11.534Z,58.63
2018-06-02T22:57:39.774Z,56.73
2018-06-02T23:00:08.136Z,53.43
2018-06-02T23:02:36.378Z,58.07
2018-06-02T23:05:05.082Z,59.30
2018-06-02T23:07:33.767Z,61.80
2018-06-02T23:10:01.939Z,60.57
2018-06-02T23:12:30.176Z,69.33
2018-06-02T23:14:58.379Z,70.90
2018-06-02T23:17:26.589Z,65.00
2018-06-02T23:19:56.024Z,69.93
2018-06-02T23:22:39.504Z,84.60
2018-06-02T23:25:17.514Z,90.40
2018-06-02T23:27:52.478Z,91.53
2018-06-02T23:30:35.434Z,92.80
2018-06-02T23:33:07.484Z,86.90
2018-06-02T23:35:35.710Z,100.73
2018-06-02T23:41:26.642Z,84.17
2018-06-02T23:43:55.719Z,85.20
2018-06-02T23:46:25.025Z,91.80
2018-06-02T23:51:34.122Z,98.67
2018-06-02T23:54:02.283Z,89.53
2018-06-02T23:56:30.469Z,96.53
2018-06-02T23:58:58.633Z,110.23
